Time;durP1;ratioP1;P1;durP2;ratioP2;P2;SDS_P1;SDS_P2;PMS_P1;PMS_P2;Temp;Humidity;BMP_temperature;BMP_pressure;BME280_temperature;BME280_humidity;BME280_pressure;Samples;Min_cycle;Max_cycle;Signal;HPM_P1;HPM_P2
2023/10/27 00:02:00;;;;;;;8.82;5.38;;;13.60;74.20;;;;;;4986262;28;20056;-55
2023/10/27 00:04:27;;;;;;;9.23;5.53;;;13.70;74.40;;;;;;5005749;28;20046;-54
2023/10/27 00:06:55;;;;;;;7.22;5.43;;;13.70;74.50;;;;;;5006173;28;20042;-55
2023/10/27 00:09:21;;;;;;;6.72;5.75;;;13.70;74.60;;;;;;5004284;28;20052;-56
2023/10/27 00:11:48;;;;;;;7.72;5.78;;;13.70;74.60;;;;;;5002411;28;20042;-56
2023/10/27 00:14:15;;;;;;;8.10;5.57;;;13.70;74.70;;;;;;5002579;28;20062;-53
2023/10/27 00:16:42;;;;;;;8.77;6.18;;;13.70;74.70;;;;;;5009912;28;20468;-52
2023/10/27 00:19:09;;;;;;;7.18;5.45;;;13.70;74.80;;;;;;5004334;28;20471;-58
2023/10/27 00:21:36;;;;;;;8.25;5.97;;;13.70;74.80;;;;;;5005704;28;20042;-54
2023/10/27 00:24:03;;;;;;;9.13;6.20;;;13.80;74.80;;;;;;5000523;28;20054;-56
2023/10/27 00:26:30;;;;;;;8.18;5.93;;;13.80;74.90;;;;;;5005335;28;20558;-55
2023/10/27 00:28:57;;;;;;;7.70;5.95;;;13.80;74.80;;;;;;5001042;28;20067;-55
2023/10/27 00:31:24;;;;;;;9.55;6.03;;;13.80;74.80;;;;;;5005700;28;20555;-56
2023/10/27 00:33:55;;;;;;;6.55;5.60;;;13.80;74.80;;;;;;5002923;28;20042;-53
2023/10/27 00:36:22;;;;;;;8.68;6.00;;;13.80;74.70;;;;;;4980747;28;20041;-55
2023/10/27 00:38:50;;;;;;;8.75;5.97;;;13.80;74.70;;;;;;5004500;28;20095;-55
2023/10/27 00:41:17;;;;;;;8.93;6.35;;;13.90;74.80;;;;;;5008533;28;20038;-56
2023/10/27 00:43:43;;;;;;;7.53;6.22;;;13.80;74.70;;;;;;4985869;28;20121;-55
2023/10/27 00:46:13;;;;;;;11.90;7.97;;;13.80;74.80;;;;;;4984103;28;20085;-56
2023/10/27 00:48:42;;;;;;;11.60;6.60;;;13.80;74.80;;;;;;5002508;28;20045;-55
2023/10/27 00:51:11;;;;;;;8.63;6.65;;;13.80;74.70;;;;;;5007365;28;20528;-54
2023/10/27 00:53:39;;;;;;;12.65;7.30;;;13.80;74.70;;;;;;4984851;28;20049;-54
2023/10/27 00:56:09;;;;;;;8.23;6.07;;;13.80;74.80;;;;;;5000153;28;20558;-54
2023/10/27 00:58:35;;;;;;;9.32;6.47;;;13.80;74.80;;;;;;5006225;28;20069;-55
2023/10/27 01:01:04;;;;;;;9.10;6.75;;;13.80;74.80;;;;;;4999352;28;20057;-56
2023/10/27 01:03:31;;;;;;;14.25;7.00;;;13.80;74.90;;;;;;4993670;28;20136;-55
2023/10/27 01:06:01;;;;;;;9.52;6.88;;;13.90;75.00;;;;;;4999541;28;20042;-56
2023/10/27 01:08:28;;;;;;;10.73;6.97;;;13.90;75.10;;;;;;4987072;28;20057;-56
2023/10/27 01:10:55;;;;;;;7.53;5.70;;;13.90;75.10;;;;;;5003449;28;20065;-54
2023/10/27 01:13:23;;;;;;;9.90;6.88;;;13.90;75.20;;;;;;5001867;28;20582;-55
2023/10/27 01:15:50;;;;;;;8.98;6.72;;;13.90;75.20;;;;;;4981573;28;20050;-54
2023/10/27 01:18:17;;;;;;;9.70;7.00;;;13.90;75.20;;;;;;5000376;28;20038;-53
2023/10/27 01:20:43;;;;;;;14.02;6.93;;;13.90;75.20;;;;;;4979452;28;20039;-53
2023/10/27 01:23:11;;;;;;;6.80;5.60;;;14.00;75.30;;;;;;5001152;28;20038;-55
2023/10/27 01:25:38;;;;;;;8.50;6.43;;;14.00;75.30;;;;;;4999783;28;20117;-53
2023/10/27 01:28:06;;;;;;;11.75;7.15;;;14.00;75.30;;;;;;4995084;28;20551;-55
2023/10/27 01:30:33;;;;;;;8.90;6.72;;;14.00;75.40;;;;;;4985611;28;20046;-51
2023/10/27 01:33:01;;;;;;;7.45;5.85;;;14.00;75.50;;;;;;4998181;28;20065;-57
2023/10/27 01:35:28;;;;;;;12.70;7.22;;;14.00;75.50;;;;;;4984622;28;20062;-55
2023/10/27 01:37:55;;;;;;;8.73;5.85;;;14.10;75.60;;;;;;5005302;28;20049;-55
2023/10/27 01:40:22;;;;;;;9.63;6.38;;;14.10;75.60;;;;;;5005733;28;20042;-54
2023/10/27 01:42:51;;;;;;;13.95;7.72;;;14.10;75.60;;;;;;5004569;28;20053;-53
2023/10/27 01:45:18;;;;;;;10.35;6.60;;;14.10;75.60;;;;;;5001488;28;20042;-55
2023/10/27 01:47:47;;;;;;;8.88;6.55;;;14.10;75.60;;;;;;4988048;28;20057;-55
2023/10/27 01:50:13;;;;;;;11.48;6.72;;;14.10;75.60;;;;;;4980409;28;20046;-53
2023/10/27 01:52:41;;;;;;;9.68;5.72;;;14.10;75.60;;;;;;4983317;28;20050;-56
2023/10/27 01:55:08;;;;;;;9.18;5.13;;;14.10;75.60;;;;;;5000825;28;20575;-53
2023/10/27 01:57:34;;;;;;;7.70;4.70;;;14.10;76.30;;;;;;4989926;28;20479;-54
2023/10/27 02:00:01;;;;;;;9.32;5.15;;;14.20;75.70;;;;;;4986933;28;20092;-56
2023/10/27 02:02:38;;;;;;;6.88;4.45;;;14.20;75.60;;;;;;5001847;28;20416;-56
2023/10/27 02:05:06;;;;;;;8.30;4.70;;;14.20;75.60;;;;;;4986894;28;20057;-56
2023/10/27 02:07:32;;;;;;;5.80;4.20;;;14.20;75.70;;;;;;4984897;28;20128;-53
2023/10/27 02:09:59;;;;;;;7.30;4.80;;;14.20;75.70;;;;;;4986181;28;20553;-54
2023/10/27 02:12:27;;;;;;;6.25;4.43;;;14.20;75.70;;;;;;4989484;28;20056;-54
2023/10/27 02:14:54;;;;;;;8.90;4.97;;;14.30;75.70;;;;;;4986098;28;20155;-55
2023/10/27 02:17:20;;;;;;;7.28;4.30;;;14.30;75.60;;;;;;5007106;28;20038;-54
2023/10/27 02:19:47;;;;;;;9.80;4.90;;;14.30;75.60;;;;;;4984928;28;20038;-55
2023/10/27 02:22:14;;;;;;;10.00;4.47;;;14.30;75.60;;;;;;4988812;28;20645;-56
2023/10/27 02:24:44;;;;;;;8.55;4.47;;;14.30;75.50;;;;;;5004586;28;20116;-53
2023/10/27 02:27:11;;;;;;;6.85;4.13;;;14.30;75.50;;;;;;5001712;28;20072;-56
2023/10/27 02:29:37;;;;;;;5.80;4.10;;;14.30;75.50;;;;;;4982737;28;20046;-55
2023/10/27 02:32:04;;;;;;;7.32;4.40;;;14.30;75.50;;;;;;4986970;28;20060;-56
2023/10/27 02:34:31;;;;;;;11.05;4.15;;;14.30;75.50;;;;;;4999112;28;20030;-54
2023/10/27 02:36:58;;;;;;;6.70;2.88;;;14.30;75.50;;;;;;5003611;28;20113;-56
2023/10/27 02:39:26;;;;;;;7.10;3.90;;;14.30;75.40;;;;;;5005446;28;20070;-54
2023/10/27 02:41:55;;;;;;;4.18;3.67;;;14.30;75.40;;;;;;5008710;28;20026;-55
2023/10/27 02:44:24;;;;;;;4.97;3.50;;;14.30;75.40;;;;;;5004804;28;20056;-54
2023/10/27 02:46:51;;;;;;;7.55;4.13;;;14.30;75.50;;;;;;5002575;28;20467;-56
2023/10/27 02:49:17;;;;;;;5.75;3.35;;;14.40;76.10;;;;;;4985965;28;20088;-55
2023/10/27 02:51:45;;;;;;;7.80;3.88;;;14.30;75.50;;;;;;4980588;28;20052;-53
2023/10/27 02:54:11;;;;;;;3.80;2.95;;;14.30;75.50;;;;;;5003950;28;20131;-55
2023/10/27 02:56:38;;;;;;;5.75;3.50;;;14.30;75.50;;;;;;5005927;28;20100;-56
2023/10/27 02:59:05;;;;;;;6.15;3.72;;;14.30;75.50;;;;;;4998175;28;20041;-57
2023/10/27 03:01:32;;;;;;;7.18;3.53;;;14.30;75.50;;;;;;5002558;28;20045;-54
2023/10/27 03:03:59;;;;;;;5.50;3.45;;;14.30;75.60;;;;;;4986832;28;20137;-53
2023/10/27 03:06:25;;;;;;;5.53;3.08;;;14.30;75.50;;;;;;4982807;28;20134;-54
2023/10/27 03:08:52;;;;;;;7.97;3.38;;;14.30;75.60;;;;;;4998487;28;20132;-53
2023/10/27 03:11:19;;;;;;;7.68;3.72;;;14.30;75.50;;;;;;4984379;28;20095;-54
2023/10/27 03:13:46;;;;;;;7.97;3.00;;;14.30;75.60;;;;;;4988379;28;20074;-54
2023/10/27 03:16:16;;;;;;;9.30;3.20;;;14.30;75.60;;;;;;5007320;28;20111;-53
2023/10/27 03:18:43;;;;;;;5.60;3.40;;;14.30;75.70;;;;;;4979681;28;20043;-56
2023/10/27 03:21:11;;;;;;;8.63;3.55;;;14.30;75.60;;;;;;4980812;28;20423;-53
2023/10/27 03:23:38;;;;;;;9.05;3.53;;;14.30;75.60;;;;;;5000360;28;20504;-56
2023/10/27 03:26:05;;;;;;;6.13;2.97;;;14.30;75.70;;;;;;4985198;28;20109;-54
2023/10/27 03:28:32;;;;;;;8.07;3.47;;;14.30;75.70;;;;;;4988375;28;20046;-55
2023/10/27 03:30:59;;;;;;;4.95;3.10;;;14.30;75.70;;;;;;4999776;28;20113;-52
2023/10/27 03:33:26;;;;;;;5.47;2.63;;;14.30;75.70;;;;;;5004048;28;20385;-55
2023/10/27 03:35:52;;;;;;;4.97;2.80;;;14.30;75.70;;;;;;5004448;28;20060;-56
2023/10/27 03:38:19;;;;;;;7.65;2.78;;;14.20;75.60;;;;;;4998846;28;20596;-56
2023/10/27 03:40:48;;;;;;;5.28;2.53;;;14.30;75.70;;;;;;4996364;28;20079;-54
2023/10/27 03:43:15;;;;;;;5.45;3.17;;;14.30;75.70;;;;;;4986259;28;20112;-53
2023/10/27 03:45:42;;;;;;;5.65;3.22;;;14.30;75.70;;;;;;4999400;28;20435;-55
2023/10/27 03:48:08;;;;;;;4.50;2.60;;;14.20;75.60;;;;;;4986062;28;20052;-55
2023/10/27 03:50:36;;;;;;;6.63;3.20;;;14.30;75.70;;;;;;4999345;28;20042;-56
2023/10/27 03:53:03;;;;;;;9.25;3.60;;;14.20;75.70;;;;;;5005592;28;20050;-55
2023/10/27 03:55:29;;;;;;;5.82;3.58;;;14.20;75.80;;;;;;5002851;28;20555;-56
2023/10/27 03:58:15;;;;;;;9.20;3.25;;;14.20;75.70;;;;;;5000962;28;20042;-56
2023/10/27 04:00:42;;;;;;;5.18;2.63;;;14.20;75.90;;;;;;5003315;28;20096;-54
2023/10/27 04:03:10;;;;;;;7.25;3.08;;;14.20;75.70;;;;;;5005010;28;21054;-53
2023/10/27 04:05:37;;;;;;;6.88;3.13;;;14.20;75.80;;;;;;5002407;28;20415;-51
2023/10/27 04:08:04;;;;;;;5.05;2.90;;;14.20;75.60;;;;;;5004607;28;20128;-55
2023/10/27 04:10:32;;;;;;;6.68;2.95;;;14.20;75.70;;;;;;5003412;28;20077;-52
2023/10/27 04:12:59;;;;;;;4.80;3.35;;;14.20;75.60;;;;;;5007166;28;20038;-54
2023/10/27 04:15:27;;;;;;;5.22;2.92;;;14.20;75.70;;;;;;5006280;28;20037;-54
2023/10/27 04:17:54;;;;;;;6.75;3.03;;;14.20;75.70;;;;;;5007691;28;20057;-54
2023/10/27 04:20:20;;;;;;;9.98;3.50;;;14.20;75.80;;;;;;5006528;28;20042;-53
2023/10/27 04:22:47;;;;;;;7.75;3.05;;;14.20;75.90;;;;;;4988389;28;20042;-53
2023/10/27 04:25:14;;;;;;;7.22;3.25;;;14.20;75.80;;;;;;5005639;28;20131;-54
2023/10/27 04:27:41;;;;;;;6.00;3.00;;;14.20;75.90;;;;;;5006129;28;20056;-56
2023/10/27 04:30:08;;;;;;;8.50;3.33;;;14.20;75.80;;;;;;5005269;28;20137;-56
2023/10/27 04:32:36;;;;;;;7.82;2.90;;;14.20;75.80;;;;;;5007425;28;20110;-55
2023/10/27 04:35:04;;;;;;;6.70;3.58;;;14.20;75.80;;;;;;5006178;28;20047;-56
2023/10/27 04:37:33;;;;;;;6.40;2.75;;;14.20;75.80;;;;;;5000163;28;20092;-55
2023/10/27 04:40:00;;;;;;;7.80;3.17;;;14.20;75.90;;;;;;5005305;28;20492;-55
2023/10/27 04:42:28;;;;;;;6.60;3.13;;;14.20;75.90;;;;;;5002516;28;20057;-55
2023/10/27 04:44:54;;;;;;;7.35;3.03;;;14.20;75.90;;;;;;5005792;28;20380;-56
2023/10/27 04:47:21;;;;;;;5.25;3.42;;;14.20;75.80;;;;;;5004274;28;20508;-56
2023/10/27 04:49:48;;;;;;;7.28;3.05;;;14.20;75.80;;;;;;4986463;28;20158;-55
2023/10/27 04:52:15;;;;;;;9.85;3.38;;;14.20;75.90;;;;;;5005202;28;20088;-55
2023/10/27 04:54:41;;;;;;;6.22;3.28;;;14.20;75.90;;;;;;5003342;28;20038;-55
2023/10/27 04:57:08;;;;;;;9.82;3.95;;;14.20;75.90;;;;;;5007327;28;20088;-54
2023/10/27 04:59:35;;;;;;;9.23;4.15;;;14.20;76.00;;;;;;5006177;28;20125;-56
2023/10/27 05:02:02;;;;;;;7.55;3.53;;;14.20;76.00;;;;;;5004800;28;20480;-57
2023/10/27 05:04:28;;;;;;;7.78;3.63;;;14.20;75.90;;;;;;5005649;28;20069;-54
2023/10/27 05:06:55;;;;;;;6.70;3.42;;;14.20;76.00;;;;;;5002799;28;20120;-56
2023/10/27 05:09:22;;;;;;;8.57;3.20;;;14.20;76.00;;;;;;5001836;28;20037;-56
2023/10/27 05:11:49;;;;;;;5.78;3.20;;;14.20;76.00;;;;;;5004719;28;20041;-55
2023/10/27 05:14:16;;;;;;;8.57;3.72;;;14.20;76.10;;;;;;5005878;28;20045;-55
2023/10/27 05:16:43;;;;;;;4.25;3.00;;;14.20;76.10;;;;;;5004192;28;20065;-56
2023/10/27 05:19:12;;;;;;;10.57;3.40;;;14.20;76.10;;;;;;4997176;28;20046;-56
2023/10/27 05:21:38;;;;;;;8.93;3.38;;;14.10;76.00;;;;;;5000023;28;20417;-53
2023/10/27 05:24:05;;;;;;;6.65;3.63;;;14.20;76.20;;;;;;5003978;28;20128;-56
2023/10/27 05:26:32;;;;;;;5.65;3.38;;;14.20;76.30;;;;;;5001318;28;20039;-54
2023/10/27 05:28:59;;;;;;;8.65;3.97;;;14.20;76.30;;;;;;4998054;28;20125;-57
2023/10/27 05:31:26;;;;;;;6.75;3.45;;;14.20;76.40;;;;;;4999322;28;20039;-56
2023/10/27 05:33:53;;;;;;;7.45;3.28;;;14.20;76.40;;;;;;5000228;28;20546;-56
2023/10/27 05:36:19;;;;;;;5.03;2.70;;;14.20;76.50;;;;;;5000378;28;20046;-54
2023/10/27 05:38:46;;;;;;;6.25;2.83;;;14.20;76.50;;;;;;5002218;28;21129;-53
2023/10/27 05:41:14;;;;;;;6.90;3.05;;;14.20;76.50;;;;;;4995753;28;20031;-51
2023/10/27 05:43:41;;;;;;;8.48;3.10;;;14.20;76.60;;;;;;5001511;28;20049;-52
2023/10/27 05:46:08;;;;;;;5.13;3.42;;;14.20;76.60;;;;;;5003851;28;20054;-53
2023/10/27 05:48:34;;;;;;;3.58;2.58;;;14.20;76.60;;;;;;5007085;28;20419;-50
2023/10/27 05:51:03;;;;;;;5.10;2.92;;;14.20;76.70;;;;;;4997212;28;20045;-55
2023/10/27 05:53:29;;;;;;;5.95;2.75;;;14.30;76.80;;;;;;5001014;28;20053;-54
2023/10/27 05:55:56;;;;;;;6.45;2.58;;;14.20;76.70;;;;;;5001505;28;20049;-52
2023/10/27 05:58:23;;;;;;;4.50;2.47;;;14.30;76.70;;;;;;5003962;28;20566;-54
2023/10/27 06:00:50;;;;;;;4.43;2.38;;;14.20;76.70;;;;;;4999053;28;20042;-55
2023/10/27 06:03:17;;;;;;;2.83;2.08;;;14.20;76.70;;;;;;4995840;28;20765;-51
2023/10/27 06:05:44;;;;;;;6.03;2.85;;;14.30;76.90;;;;;;5000991;28;20524;-55
2023/10/27 06:08:11;;;;;;;4.32;2.20;;;14.30;77.00;;;;;;5000645;28;20046;-55
2023/10/27 06:10:37;;;;;;;4.65;2.47;;;14.30;77.00;;;;;;5002144;28;20112;-53
2023/10/27 06:13:04;;;;;;;5.38;2.70;;;14.30;77.00;;;;;;5004738;28;20045;-54
2023/10/27 06:15:31;;;;;;;5.15;2.45;;;14.30;77.10;;;;;;5004294;28;20407;-55
2023/10/27 06:17:58;;;;;;;6.22;2.80;;;14.30;77.10;;;;;;5004410;28;20359;-55
2023/10/27 06:20:25;;;;;;;5.60;2.03;;;14.30;77.10;;;;;;5006369;28;21522;-54
2023/10/27 06:22:52;;;;;;;3.90;1.85;;;14.30;77.10;;;;;;5004776;28;20038;-54
2023/10/27 06:25:18;;;;;;;2.50;2.10;;;14.30;77.00;;;;;;5001926;28;20042;-52
2023/10/27 06:27:47;;;;;;;6.28;2.65;;;14.30;77.00;;;;;;5006076;28;20423;-53
2023/10/27 06:30:14;;;;;;;5.63;2.15;;;14.30;76.90;;;;;;5000440;28;20129;-52
2023/10/27 06:32:41;;;;;;;6.68;2.75;;;14.30;77.00;;;;;;4998991;28;20069;-52
2023/10/27 06:35:08;;;;;;;6.20;2.13;;;14.30;77.10;;;;;;5005007;28;20033;-53
2023/10/27 06:37:35;;;;;;;7.00;2.80;;;14.30;77.10;;;;;;5000667;28;20100;-55
2023/10/27 06:40:04;;;;;;;4.32;2.05;;;14.30;77.10;;;;;;5003218;28;20575;-54
2023/10/27 06:42:31;;;;;;;3.58;2.05;;;14.30;77.10;;;;;;5002398;28;20488;-51
2023/10/27 06:44:58;;;;;;;5.60;2.53;;;14.40;77.10;;;;;;5004953;28;20377;-55
2023/10/27 06:47:27;;;;;;;4.40;2.10;;;14.40;77.10;;;;;;5004199;28;20065;-53
2023/10/27 06:49:56;;;;;;;4.95;2.45;;;14.40;77.10;;;;;;4999108;28;20042;-54
2023/10/27 06:52:23;;;;;;;5.50;2.10;;;14.40;77.10;;;;;;5000362;28;20038;-52
2023/10/27 06:54:50;;;;;;;5.07;2.33;;;14.40;77.20;;;;;;4999763;28;20101;-55
2023/10/27 06:57:16;;;;;;;2.38;1.83;;;14.40;77.20;;;;;;5003618;28;20049;-53
2023/10/27 06:59:43;;;;;;;3.03;2.17;;;14.40;77.20;;;;;;5004736;28;20034;-54
2023/10/27 07:02:10;;;;;;;3.83;1.80;;;14.40;77.30;;;;;;5001324;28;20818;-52
2023/10/27 07:04:37;;;;;;;4.75;2.05;;;14.30;77.20;;;;;;5005008;28;20129;-52
2023/10/27 07:07:05;;;;;;;4.05;2.08;;;14.40;77.20;;;;;;5002113;28;20043;-54
2023/10/27 07:09:49;;;;;;;5.07;2.65;;;14.50;77.20;;;;;;5000975;28;21013;-55
2023/10/27 07:12:16;;;;;;;6.28;2.38;;;14.50;77.30;;;;;;5001793;28;20646;-55
2023/10/27 07:14:44;;;;;;;4.15;2.20;;;14.50;77.90;;;;;;4999531;28;20120;-53
2023/10/27 07:17:11;;;;;;;2.40;1.88;;;14.50;77.40;;;;;;4984217;28;20061;-55
2023/10/27 07:19:39;;;;;;;2.30;1.40;;;14.50;77.40;;;;;;5002891;28;20584;-54
2023/10/27 07:22:05;;;;;;;1.75;1.65;;;14.50;77.40;;;;;;5003623;28;20046;-55
2023/10/27 07:24:32;;;;;;;2.10;1.42;;;14.50;77.40;;;;;;5005427;28;20046;-54
2023/10/27 07:26:59;;;;;;;2.05;1.38;;;14.50;77.40;;;;;;5001739;28;20065;-55
2023/10/27 07:29:26;;;;;;;2.08;1.90;;;14.50;77.50;;;;;;5002472;28;20045;-54
2023/10/27 07:31:54;;;;;;;2.40;1.85;;;14.50;77.70;;;;;;5002839;28;20048;-54
2023/10/27 07:34:20;;;;;;;2.30;2.10;;;14.50;77.70;;;;;;5008001;28;20045;-55
2023/10/27 07:36:47;;;;;;;3.38;2.10;;;14.50;77.80;;;;;;5009123;28;20655;-54
2023/10/27 07:39:15;;;;;;;2.45;2.00;;;14.50;77.80;;;;;;5010629;28;20056;-54
2023/10/27 07:41:42;;;;;;;2.60;2.20;;;14.60;77.80;;;;;;5010743;28;20053;-55
2023/10/27 07:44:08;;;;;;;2.38;2.17;;;14.60;77.90;;;;;;5010603;28;20093;-52
2023/10/27 07:46:35;;;;;;;3.17;2.40;;;14.60;78.50;;;;;;4991886;28;20539;-55
2023/10/27 07:49:02;;;;;;;2.53;2.10;;;14.60;77.90;;;;;;4992787;28;20048;-55
2023/10/27 07:51:28;;;;;;;2.45;2.25;;;14.60;77.90;;;;;;5030814;22;20121;-56
2023/10/27 07:53:56;;;;;;;1.98;1.88;;;14.60;78.00;;;;;;5012498;28;20073;-59
2023/10/27 07:56:23;;;;;;;2.22;2.03;;;14.60;78.00;;;;;;5007813;28;20462;-57
2023/10/27 07:58:49;;;;;;;2.13;1.92;;;14.70;78.10;;;;;;5006773;28;20444;-56
2023/10/27 08:01:16;;;;;;;2.13;2.00;;;14.70;78.10;;;;;;5009088;28;20048;-58
2023/10/27 08:03:45;;;;;;;2.75;2.20;;;14.70;78.00;;;;;;5012524;28;20173;-55
2023/10/27 08:06:13;;;;;;;2.92;2.63;;;14.70;78.00;;;;;;5012105;28;20061;-55
2023/10/27 08:08:40;;;;;;;4.85;2.83;;;14.70;78.00;;;;;;5007960;28;20046;-56
2023/10/27 08:11:06;;;;;;;2.47;2.28;;;14.70;78.10;;;;;;5011387;28;20053;-56
2023/10/27 08:13:33;;;;;;;2.85;2.63;;;14.70;78.00;;;;;;5010781;28;20439;-56
2023/10/27 08:16:02;;;;;;;2.97;2.60;;;14.70;77.90;;;;;;5006920;28;20104;-57
2023/10/27 08:18:28;;;;;;;2.53;2.33;;;14.70;77.90;;;;;;5011909;28;20069;-54
2023/10/27 08:20:56;;;;;;;3.05;2.65;;;14.80;77.90;;;;;;5012000;28;20037;-57
2023/10/27 08:23:23;;;;;;;4.68;3.25;;;14.80;77.80;;;;;;5007745;28;20116;-56
2023/10/27 08:25:51;;;;;;;4.10;2.95;;;14.80;77.80;;;;;;4990132;28;20045;-55
2023/10/27 08:28:21;;;;;;;4.85;3.25;;;14.80;77.90;;;;;;5008583;28;20042;-57
2023/10/27 08:30:48;;;;;;;3.08;2.38;;;14.80;78.00;;;;;;5009913;28;20052;-56
2023/10/27 08:33:15;;;;;;;3.00;2.58;;;14.80;78.00;;;;;;5008368;28;20046;-56
2023/10/27 08:35:42;;;;;;;5.47;3.10;;;14.80;78.00;;;;;;5010048;28;20103;-56
2023/10/27 08:38:08;;;;;;;3.05;2.75;;;14.80;78.00;;;;;;5011863;28;20048;-56
2023/10/27 08:40:36;;;;;;;3.58;2.80;;;14.80;78.00;;;;;;5010929;28;21008;-55
2023/10/27 08:43:03;;;;;;;5.53;3.20;;;14.80;78.00;;;;;;5006174;28;20125;-55
2023/10/27 08:45:35;;;;;;;4.50;3.63;;;14.80;78.20;;;;;;5008895;28;20049;-55
2023/10/27 08:48:04;;;;;;;4.22;3.75;;;14.90;78.30;;;;;;5009588;28;20053;-55
2023/10/27 08:50:35;;;;;;;4.20;3.33;;;14.90;78.10;;;;;;5011704;28;20111;-56
2023/10/27 08:53:03;;;;;;;4.82;4.32;;;14.90;78.20;;;;;;5008535;28;20058;-56
2023/10/27 08:55:32;;;;;;;5.07;4.15;;;14.80;78.00;;;;;;5006428;28;20140;-54
2023/10/27 08:57:58;;;;;;;5.85;4.40;;;14.90;78.00;;;;;;5009209;28;20125;-55
2023/10/27 09:00:25;;;;;;;5.15;4.60;;;15.00;78.20;;;;;;5010131;28;20046;-54
2023/10/27 09:02:52;;;;;;;7.20;5.53;;;15.00;78.20;;;;;;5008407;28;20113;-56
2023/10/27 09:05:19;;;;;;;5.43;4.55;;;15.00;78.10;;;;;;5006776;28;20038;-56
2023/10/27 09:07:46;;;;;;;4.90;4.43;;;15.00;78.00;;;;;;5010857;28;20110;-57
2023/10/27 09:10:13;;;;;;;5.35;4.47;;;15.00;78.00;;;;;;5010798;28;20575;-56
2023/10/27 09:12:41;;;;;;;4.95;4.35;;;15.10;77.90;;;;;;5006342;28;20456;-54
2023/10/27 09:15:09;;;;;;;5.55;4.40;;;15.10;77.90;;;;;;5006668;28;20046;-56
2023/10/27 09:17:51;;;;;;;5.03;4.50;;;15.00;78.00;;;;;;5007211;28;20096;-56
2023/10/27 09:20:21;;;;;;;5.30;4.20;;;15.10;78.30;;;;;;5007736;28;20507;-55
2023/10/27 09:23:04;;;;;;;4.05;3.58;;;15.10;78.10;;;;;;5008210;28;20034;-55
2023/10/27 09:25:32;;;;;;;3.60;3.30;;;15.20;78.10;;;;;;5003495;28;20147;-55
2023/10/27 09:28:01;;;;;;;4.88;4.28;;;15.10;77.80;;;;;;5005486;28;20041;-56
2023/10/27 09:30:32;;;;;;;3.53;3.22;;;15.20;77.90;;;;;;5008985;28;20073;-56
2023/10/27 09:33:13;;;;;;;6.78;4.15;;;15.20;77.90;;;;;;5006688;28;20496;-55
2023/10/27 09:35:41;;;;;;;5.97;4.82;;;15.20;77.90;;;;;;5008254;28;20038;-55
2023/10/27 09:38:08;;;;;;;6.20;4.50;;;15.30;77.80;;;;;;5009374;28;20050;-56
2023/10/27 09:40:37;;;;;;;4.90;4.00;;;15.30;77.80;;;;;;5007000;28;20041;-57
2023/10/27 09:43:07;;;;;;;3.70;3.05;;;15.30;77.80;;;;;;5008131;28;20579;-57
2023/10/27 09:45:36;;;;;;;3.42;3.13;;;15.30;77.80;;;;;;5009419;28;20096;-57
2023/10/27 09:48:04;;;;;;;4.82;3.72;;;15.40;77.80;;;;;;5006602;28;20049;-56
2023/10/27 09:50:32;;;;;;;3.58;3.28;;;15.40;77.60;;;;;;5005395;28;20048;-55
2023/10/27 09:53:06;;;;;;;3.30;2.97;;;15.40;77.60;;;;;;5007718;28;20065;-56
2023/10/27 09:55:33;;;;;;;5.75;2.80;;;15.50;77.50;;;;;;5004646;28;20038;-56
2023/10/27 09:58:01;;;;;;;3.30;2.85;;;15.40;77.50;;;;;;5008058;28;20064;-54
2023/10/27 10:00:32;;;;;;;3.45;3.15;;;15.50;77.60;;;;;;5008252;28;20096;-56
2023/10/27 10:02:59;;;;;;;2.92;2.72;;;15.50;77.50;;;;;;5004137;28;20042;-53
2023/10/27 10:05:26;;;;;;;3.95;3.13;;;15.60;77.30;;;;;;5005366;28;20517;-53
2023/10/27 10:07:56;;;;;;;3.95;3.03;;;15.60;77.30;;;;;;5008375;28;20463;-55
2023/10/27 10:10:23;;;;;;;3.67;3.22;;;15.60;77.20;;;;;;5008543;28;20133;-56
2023/10/27 10:13:03;;;;;;;4.93;3.50;;;15.60;77.00;;;;;;5004161;28;20042;-56
2023/10/27 10:15:33;;;;;;;4.25;3.28;;;15.70;77.00;;;;;;5006150;28;20117;-55
2023/10/27 10:18:02;;;;;;;3.83;3.28;;;15.70;77.00;;;;;;5007008;28;20046;-52
2023/10/27 10:20:44;;;;;;;6.05;3.90;;;15.60;76.80;;;;;;5003230;28;20124;-54
2023/10/27 10:23:11;;;;;;;4.43;3.85;;;15.70;76.80;;;;;;5006809;28;20073;-56
2023/10/27 10:25:50;;;;;;;4.35;3.42;;;15.60;76.60;;;;;;5001631;28;20085;-57
2023/10/27 10:28:18;;;;;;;4.57;3.83;;;15.70;76.90;;;;;;5003716;28;20044;-56
2023/10/27 10:30:47;;;;;;;6.22;4.75;;;15.70;77.40;;;;;;5007131;28;20041;-55
2023/10/27 10:33:16;;;;;;;7.95;4.63;;;15.70;76.70;;;;;;5006441;28;20062;-56
2023/10/27 10:35:46;;;;;;;7.43;4.13;;;15.60;76.50;;;;;;5000731;28;20449;-56
2023/10/27 10:38:21;;;;;;;5.85;4.68;;;15.60;76.60;;;;;;5006321;28;20502;-57
2023/10/27 10:40:52;;;;;;;7.07;5.38;;;15.60;76.80;;;;;;5001917;28;20042;-56
2023/10/27 10:43:36;;;;;;;7.00;5.65;;;15.60;76.90;;;;;;5005783;28;20042;-57
2023/10/27 10:46:04;;;;;;;8.07;5.57;;;15.60;76.90;;;;;;5006941;28;20052;-57
2023/10/27 10:48:33;;;;;;;8.52;5.70;;;15.60;77.00;;;;;;5007233;28;20062;-56
2023/10/27 10:51:11;;;;;;;8.40;5.38;;;15.70;77.20;;;;;;5002888;28;20057;-56
2023/10/27 10:53:43;;;;;;;;;;;15.70;77.30;;;;;;5006852;28;20054;-55
2023/10/27 10:56:10;;;;;;;7.43;5.55;;;15.90;77.40;;;;;;5004436;28;20016;-57
2023/10/27 10:58:37;;;;;;;9.45;6.00;;;15.70;76.90;;;;;;5007580;28;20042;-56
2023/10/27 11:01:14;;;;;;;9.63;6.03;;;15.80;77.00;;;;;;5004546;28;20054;-55
2023/10/27 11:03:49;;;;;;;8.52;5.97;;;15.80;77.20;;;;;;5006496;28;20056;-57
2023/10/27 11:06:19;;;;;;;6.82;5.80;;;15.80;77.20;;;;;;5006824;28;20050;-55
2023/10/27 11:08:46;;;;;;;8.55;6.65;;;15.90;77.30;;;;;;5006928;28;20540;-57
2023/10/27 11:11:14;;;;;;;7.47;5.57;;;15.90;77.30;;;;;;5007468;28;20148;-54
2023/10/27 11:13:43;;;;;;;8.02;6.53;;;16.00;77.50;;;;;;4988453;28;20108;-54
2023/10/27 11:16:23;;;;;;;9.05;7.28;;;16.10;77.50;;;;;;5007259;28;20584;-57
2023/10/27 11:19:02;;;;;;;9.00;6.53;;;16.20;77.30;;;;;;4989880;28;20061;-56
2023/10/27 11:21:32;;;;;;;6.35;5.45;;;16.20;77.20;;;;;;5007612;28;20443;-57
2023/10/27 11:24:06;;;;;;;8.80;6.40;;;16.30;77.00;;;;;;5005218;28;20042;-57
2023/10/27 11:26:41;;;;;;;8.93;6.55;;;16.40;77.00;;;;;;5003410;28;20159;-55
2023/10/27 11:29:08;;;;;;;9.05;6.40;;;16.40;76.90;;;;;;5005195;28;20751;-55
2023/10/27 11:31:39;;;;;;;10.10;6.03;;;16.50;76.70;;;;;;4988253;28;20570;-56
2023/10/27 11:34:11;;;;;;;7.22;6.07;;;16.60;76.40;;;;;;5001600;28;20129;-56
2023/10/27 11:36:56;;;;;;;9.30;6.63;;;16.70;76.40;;;;;;5001561;28;20046;-57
2023/10/27 11:39:23;;;;;;;8.20;5.93;;;16.80;76.40;;;;;;5001495;28;20077;-55
2023/10/27 11:42:01;;;;;;;8.05;5.75;;;16.90;75.90;;;;;;5004202;28;20116;-55
2023/10/27 11:44:29;;;;;;;9.88;5.75;;;17.00;75.40;;;;;;5002493;28;20731;-55
2023/10/27 11:47:00;;;;;;;11.45;6.85;;;17.00;75.10;;;;;;5003152;28;20124;-57
2023/10/27 11:49:31;;;;;;;8.35;6.07;;;17.00;74.90;;;;;;5002908;28;20065;-57
2023/10/27 11:51:58;;;;;;;12.00;6.97;;;17.00;74.80;;;;;;5001748;28;20054;-57
2023/10/27 11:54:26;;;;;;;13.52;6.65;;;17.10;74.60;;;;;;5005414;28;20129;-57
2023/10/27 11:56:53;;;;;;;9.38;5.97;;;17.00;74.30;;;;;;5002221;28;20061;-57
2023/10/27 11:59:29;;;;;;;10.07;6.22;;;17.00;74.20;;;;;;5006795;28;20045;-55
2023/10/27 12:01:57;;;;;;;12.80;7.00;;;17.00;74.30;;;;;;5006415;28;20443;-56
2023/10/27 12:04:23;;;;;;;11.35;6.85;;;17.00;74.30;;;;;;5005243;28;20074;-57
2023/10/27 12:06:52;;;;;;;9.38;6.65;;;17.00;74.40;;;;;;5006500;28;20046;-57
2023/10/27 12:09:20;;;;;;;11.35;7.72;;;16.90;74.60;;;;;;5006869;28;20508;-57
2023/10/27 12:11:47;;;;;;;13.57;7.15;;;16.90;74.90;;;;;;5006663;28;20065;-57
2023/10/27 12:14:15;;;;;;;8.93;6.10;;;16.90;75.00;;;;;;5004739;28;20051;-57
2023/10/27 12:16:42;;;;;;;12.98;7.28;;;16.90;75.30;;;;;;5003011;28;20125;-57
2023/10/27 12:19:13;;;;;;;8.65;6.90;;;16.90;75.20;;;;;;5006798;28;20534;-57
2023/10/27 12:21:40;;;;;;;5.70;4.53;;;16.90;75.00;;;;;;4993281;28;20352;-55
2023/10/27 12:24:08;;;;;;;6.40;4.80;;;16.90;74.80;;;;;;5006357;28;20041;-56
2023/10/27 12:26:35;;;;;;;7.55;4.05;;;17.00;74.50;;;;;;5007961;28;20050;-57
2023/10/27 12:29:02;;;;;;;6.80;3.58;;;16.90;74.40;;;;;;5007750;28;20080;-57
2023/10/27 12:31:29;;;;;;;8.90;3.05;;;16.90;74.30;;;;;;5009131;28;20045;-56
2023/10/27 12:33:55;;;;;;;4.93;3.17;;;16.90;74.20;;;;;;5005045;28;20050;-56
2023/10/27 12:36:22;;;;;;;6.57;2.75;;;16.90;73.90;;;;;;4990659;28;20038;-57
2023/10/27 12:38:49;;;;;;;6.00;2.30;;;16.80;73.80;;;;;;5007727;28;20044;-56
2023/10/27 12:41:16;;;;;;;3.97;1.90;;;16.80;73.80;;;;;;5008987;28;20034;-57
2023/10/27 12:43:43;;;;;;;9.30;2.45;;;16.70;73.90;;;;;;5005980;28;20125;-56
2023/10/27 12:46:09;;;;;;;5.47;2.28;;;16.70;74.00;;;;;;5006539;28;20042;-57
2023/10/27 12:48:36;;;;;;;4.65;1.90;;;16.70;74.10;;;;;;5008070;28;20165;-57
2023/10/27 12:51:04;;;;;;;3.00;1.90;;;16.70;74.10;;;;;;5001068;28;20129;-56